Time;durP1;ratioP1;P1;durP2;ratioP2;P2;SDS_P1;SDS_P2;PMS_P1;PMS_P2;Temp;Humidity;BMP_temperature;BMP_pressure;BME280_temperature;BME280_humidity;BME280_pressure;Samples;Min_cycle;Max_cycle;Signal;HPM_P1;HPM_P2
2022/12/07 00:02:20;;;;;;;;;16.80;16.80;;;;;8.31;63.00;98257.00;6284540;27;96141;-68
2022/12/07 00:05:24;;;;;;;;;19.00;18.00;;;;;8.26;63.02;98262.19;6280986;27;96362;-68
2022/12/07 00:08:28;;;;;;;;;16.00;16.00;;;;;8.28;63.00;98260.94;6283099;27;97297;-67
2022/12/07 00:11:33;;;;;;;;;19.60;18.00;;;;;8.28;63.25;98257.44;6289452;27;96510;-67
2022/12/07 00:14:36;;;;;;;;;20.75;19.75;;;;;8.29;63.20;98259.09;6282277;27;96200;-67
2022/12/07 00:17:39;;;;;;;;;21.40;20.40;;;;;8.35;63.06;98252.03;6290578;27;97102;-67
2022/12/07 00:20:43;;;;;;;;;17.00;17.00;;;;;8.43;63.06;98260.63;6289641;27;96510;-68
2022/12/07 00:23:48;;;;;;;;;16.00;15.60;;;;;8.41;62.60;98257.31;6288319;27;96321;-68
2022/12/07 00:26:53;;;;;;;;;17.80;17.80;;;;;8.45;62.75;98255.03;6286048;27;96412;-68
2022/12/07 00:29:56;;;;;;;;;19.25;18.75;;;;;8.52;62.53;98258.44;6286819;27;96323;-69
2022/12/07 00:32:59;;;;;;;;;20.00;18.80;;;;;8.53;62.41;98260.09;6288219;27;96655;-68
2022/12/07 00:36:05;;;;;;;;;20.00;19.40;;;;;8.54;62.35;98257.19;6284284;27;97436;-68
2022/12/07 00:39:09;;;;;;;;;18.00;17.50;;;;;8.60;62.50;98258.97;6285060;27;96577;-68
2022/12/07 00:42:14;;;;;;;;;22.75;20.25;;;;;8.64;62.15;98259.34;6288062;27;97267;-68
2022/12/07 00:45:17;;;;;;;;;18.50;17.50;;;;;8.56;61.92;98256.94;6287522;27;96224;-69
2022/12/07 00:48:21;;;;;;;;;19.40;18.80;;;;;8.58;62.02;98265.63;6287111;27;96664;-68
2022/12/07 00:51:26;;;;;;;;;21.20;19.80;;;;;8.59;61.97;98245.78;6288133;27;97084;-68
2022/12/07 00:54:29;;;;;;;;;15.00;15.00;;;;;8.72;61.85;98255.53;6288315;27;97600;-68
2022/12/07 00:57:34;;;;;;;;;23.60;22.60;;;;;8.75;61.81;98247.03;6289684;27;96457;-68
2022/12/07 01:00:39;;;;;;;;;12.00;12.00;;;;;8.79;61.50;98245.53;6289189;27;96373;-67
2022/12/07 01:03:43;;;;;;;;;16.00;15.00;;;;;8.75;61.71;98249.72;6288447;27;96977;-68
2022/12/07 01:06:47;;;;;;;;;15.00;14.00;;;;;8.72;61.77;98251.00;6288844;27;96724;-68
2022/12/07 01:09:50;;;;;;;;;18.00;18.00;;;;;8.70;61.97;98235.06;6275972;27;96782;-69
2022/12/07 01:12:54;;;;;;;;;17.40;17.00;;;;;8.66;61.95;98241.13;6289282;27;96279;-67
2022/12/07 01:16:00;;;;;;;;;19.00;19.00;;;;;8.64;62.16;98238.69;6289088;27;96460;-68
2022/12/07 01:19:05;;;;;;;;;16.00;14.60;;;;;8.68;61.98;98234.50;6293421;27;96498;-67
2022/12/07 01:22:08;;;;;;;;;20.00;19.00;;;;;8.70;62.11;98236.94;6286591;27;96801;-68
2022/12/07 01:25:13;;;;;;;;;21.00;18.50;;;;;8.62;62.07;98224.66;6286432;27;96187;-68
2022/12/07 01:28:17;;;;;;;;;15.40;15.00;;;;;8.70;62.11;98232.38;6298130;27;96918;-68
2022/12/07 01:31:22;;;;;;;;;19.40;18.60;;;;;8.66;62.13;98231.19;6286988;27;96891;-67
2022/12/07 01:34:26;;;;;;;;;20.00;19.00;;;;;8.66;62.33;98238.44;6278175;27;98817;-68
2022/12/07 01:37:34;;;;;;;;;17.20;15.80;;;;;8.62;62.36;98223.81;6288120;27;97045;-68
2022/12/07 01:40:37;;;;;;;;;14.20;14.20;;;;;8.61;62.33;98224.88;6287151;27;97276;-68
2022/12/07 01:44:10;;;;;;;;;15.60;14.00;;;;;8.62;62.32;98224.66;6282590;27;96350;-68
2022/12/07 01:47:14;;;;;;;;;23.00;21.00;;;;;8.67;62.17;98230.16;6288609;27;96402;-67
2022/12/07 01:50:17;;;;;;;;;22.50;21.50;;;;;8.62;61.90;98235.38;6283322;27;96397;-68
2022/12/07 01:53:26;;;;;;;;;19.00;18.00;;;;;8.47;62.06;98210.78;6277575;27;96679;-67
2022/12/07 01:56:31;;;;;;;;;19.20;19.20;;;;;8.58;62.20;98220.78;6280676;27;96786;-68
2022/12/07 01:59:37;;;;;;;;;12.20;12.20;;;;;8.46;62.13;98233.31;6277988;27;96333;-68
2022/12/07 02:02:46;;;;;;;;;23.80;21.40;;;;;8.46;62.07;98225.25;6287304;27;96214;-67
2022/12/07 02:05:51;;;;;;;;;19.00;18.00;;;;;8.23;61.89;98184.78;6285048;27;96625;-68
2022/12/07 02:08:54;;;;;;;;;22.00;21.00;;;;;8.49;61.46;98222.13;6284916;27;96715;-67
2022/12/07 02:11:58;;;;;;;;;16.00;14.00;;;;;8.45;61.80;98217.44;6287193;27;96641;-68
2022/12/07 02:15:04;;;;;;;;;13.75;12.00;;;;;8.43;61.31;98214.97;6276793;27;96685;-67
2022/12/07 02:18:12;;;;;;;;;16.80;16.80;;;;;8.45;61.46;98204.00;6288902;27;96413;-67
2022/12/07 02:21:27;;;;;;;;;20.00;19.00;;;;;8.42;61.49;98207.13;6287696;27;96583;-68
2022/12/07 02:24:48;;;;;;;;;21.40;20.40;;;;;8.17;61.37;98189.19;6281531;27;97008;-68
2022/12/07 02:28:03;;;;;;;;;18.40;17.40;;;;;8.41;61.52;98208.97;6284241;27;95991;-67
2022/12/07 02:31:14;;;;;;;;;14.50;13.00;;;;;8.39;61.40;98212.94;6302192;27;96297;-67
2022/12/07 02:34:30;;;;;;;;;16.00;15.00;;;;;8.41;61.73;98216.22;6294528;27;96636;-68
2022/12/07 02:37:40;;;;;;;;;14.40;13.40;;;;;8.45;61.58;98220.94;6271595;27;97720;-68
2022/12/07 02:40:51;;;;;;;;;20.00;19.00;;;;;8.50;61.06;98215.69;6288114;27;97445;-68
2022/12/07 02:43:58;;;;;;;;;16.00;14.80;;;;;8.48;60.87;98209.72;6287835;27;96199;-67
2022/12/07 02:47:06;;;;;;;;;18.00;17.00;;;;;8.49;61.05;98210.56;6278475;27;96521;-68
2022/12/07 02:50:11;;;;;;;;;18.00;17.00;;;;;8.49;60.83;98208.69;6280883;27;96246;-68
2022/12/07 02:53:34;;;;;;;;;15.00;14.40;;;;;8.53;60.79;98206.38;6287550;27;97083;-68
2022/12/07 02:56:46;;;;;;;;;12.00;12.00;;;;;8.56;60.57;98212.09;6288505;27;96241;-67
2022/12/07 03:00:01;;;;;;;;;14.80;12.40;;;;;8.58;60.37;98201.16;6287975;27;97449;-68
2022/12/07 03:03:11;;;;;;;;;13.00;13.00;;;;;8.56;60.59;98203.22;6293420;27;98526;-67
2022/12/07 03:06:21;;;;;;;;;16.00;13.50;;;;;8.53;60.39;98195.63;6289206;27;96373;-68
2022/12/07 03:09:33;;;;;;;;;16.80;15.80;;;;;8.55;60.58;98197.03;6277318;27;97468;-68
2022/12/07 03:12:45;;;;;;;;;14.80;14.00;;;;;8.55;60.50;98190.84;6287393;27;96953;-68
2022/12/07 03:15:56;;;;;;;;;16.60;15.60;;;;;8.52;60.51;98196.66;6272803;27;96610;-68
2022/12/07 03:19:06;;;;;;;;;16.60;15.00;;;;;8.51;60.72;98195.84;6287463;27;96305;-68
2022/12/07 03:22:12;;;;;;;;;18.40;17.00;;;;;8.53;60.71;98191.06;6265056;27;96878;-69
2022/12/07 03:25:18;;;;;;;;;18.00;17.00;;;;;8.56;60.53;98184.41;6280646;27;96552;-68
2022/12/07 03:28:25;;;;;;;;;17.00;15.25;;;;;8.40;60.65;98168.94;6287099;27;96361;-68
2022/12/07 03:31:33;;;;;;;;;20.20;18.20;;;;;8.47;60.77;98181.22;6279006;27;96424;-68
2022/12/07 03:34:46;;;;;;;;;20.75;19.75;;;;;8.51;61.09;98184.28;6287310;27;96384;-68
2022/12/07 03:37:55;;;;;;;;;19.00;18.00;;;;;8.49;61.29;98183.69;6286050;27;96201;-68
2022/12/07 03:41:02;;;;;;;;;20.60;19.60;;;;;8.50;61.31;98177.28;6278597;27;96314;-68
2022/12/07 03:44:07;;;;;;;;;24.00;22.00;;;;;8.49;61.30;98178.31;6286978;27;96768;-68
2022/12/07 03:47:19;;;;;;;;;21.00;21.00;;;;;8.45;61.48;98174.44;6282759;27;96370;-69
2022/12/07 03:50:32;;;;;;;;;21.60;18.60;;;;;8.43;61.50;98171.16;6282877;27;96499;-69
2022/12/07 03:53:41;;;;;;;;;28.00;25.40;;;;;8.45;61.63;98169.06;6293564;27;97400;-68
2022/12/07 03:56:46;;;;;;;;;26.00;23.80;;;;;8.45;61.78;98171.75;6292266;27;96260;-68
2022/12/07 03:59:50;;;;;;;;;19.60;18.60;;;;;8.45;61.70;98163.72;6285744;27;96639;-68
2022/12/07 04:02:54;;;;;;;;;19.00;19.00;;;;;8.46;61.77;98165.31;6285468;27;96793;-67
2022/12/07 04:06:00;;;;;;;;;25.67;25.00;;;;;8.39;61.86;98154.69;6286280;27;98358;-67
2022/12/07 04:09:04;;;;;;;;;26.75;24.75;;;;;8.48;61.83;98155.19;6286856;27;96452;-68
2022/12/07 04:12:07;;;;;;;;;24.20;23.00;;;;;8.52;61.78;98161.75;6303397;27;96471;-68
2022/12/07 04:15:11;;;;;;;;;26.00;24.50;;;;;8.45;61.91;98159.16;6288812;27;96214;-68
2022/12/07 04:18:14;;;;;;;;;24.40;24.00;;;;;8.44;62.12;98168.25;6285662;27;96937;-68
2022/12/07 04:21:19;;;;;;;;;24.20;23.20;;;;;8.43;62.06;98160.41;6289042;27;96319;-68
2022/12/07 04:24:23;;;;;;;;;22.40;21.40;;;;;8.44;62.12;98159.38;6288456;27;96270;-68
2022/12/07 04:27:26;;;;;;;;;21.60;20.60;;;;;8.43;62.38;98163.91;6289069;27;96597;-68
2022/12/07 04:30:29;;;;;;;;;21.40;20.40;;;;;8.46;62.42;98162.63;6288279;27;96270;-67
2022/12/07 04:33:33;;;;;;;;;18.00;17.00;;;;;8.44;62.68;98156.69;6287022;27;96436;-67
2022/12/07 04:36:38;;;;;;;;;25.00;22.60;;;;;8.48;62.84;98163.25;6289868;27;96468;-67
2022/12/07 04:39:43;;;;;;;;;22.00;20.25;;;;;8.28;63.22;98142.78;6289562;27;96921;-67
2022/12/07 04:42:47;;;;;;;;;26.40;24.40;;;;;8.45;62.98;98150.28;6285555;27;96903;-67
2022/12/07 04:45:50;;;;;;;;;26.67;24.67;;;;;8.43;63.09;98155.88;6284351;27;96646;-67
2022/12/07 04:48:55;;;;;;;;;22.60;22.00;;;;;8.34;63.61;98141.09;6286727;27;96334;-67
2022/12/07 04:52:00;;;;;;;;;16.67;16.00;;;;;8.41;63.53;98154.44;6289958;27;96728;-68
2022/12/07 04:55:05;;;;;;;;;21.20;20.80;;;;;8.46;63.09;98158.09;6281658;27;96892;-68
2022/12/07 04:58:08;;;;;;;;;22.00;21.00;;;;;8.48;63.86;98155.19;6287383;27;97069;-67
2022/12/07 05:01:12;;;;;;;;;21.50;21.50;;;;;8.45;64.03;98151.09;6311360;27;98456;-67
2022/12/07 05:04:17;;;;;;;;;19.00;18.60;;;;;8.57;63.79;98151.97;6288803;27;97461;-68
2022/12/07 05:07:22;;;;;;;;;20.40;19.00;;;;;8.58;63.83;98150.09;6289652;27;96477;-67
2022/12/07 05:10:26;;;;;;;;;18.20;16.40;;;;;8.64;63.58;98146.50;6282586;27;96416;-67
2022/12/07 05:13:29;;;;;;;;;22.80;21.80;;;;;8.58;63.55;98137.50;6305296;27;96231;-68
2022/12/07 05:16:33;;;;;;;;;21.33;20.00;;;;;8.69;63.30;98152.03;6290067;27;96558;-67
2022/12/07 05:19:36;;;;;;;;;24.20;23.40;;;;;8.58;63.52;98145.53;6288336;27;96449;-68
2022/12/07 05:22:41;;;;;;;;;19.40;19.40;;;;;8.55;63.89;98154.03;6287416;27;96448;-67
2022/12/07 05:25:44;;;;;;;;;18.80;18.20;;;;;8.55;64.04;98145.19;6271532;27;98676;-67
2022/12/07 05:28:51;;;;;;;;;22.00;21.00;;;;;8.52;64.08;98145.63;6286268;27;98050;-68
2022/12/07 05:31:55;;;;;;;;;22.40;21.80;;;;;8.55;64.15;98147.88;6287115;27;96207;-68
2022/12/07 05:34:58;;;;;;;;;23.00;22.00;;;;;8.41;64.45;98159.81;6265608;27;96741;-67
2022/12/07 05:38:03;;;;;;;;;14.00;14.00;;;;;8.49;64.12;98156.84;6286428;27;96620;-68
2022/12/07 05:42:11;;;;;;;;;14.00;13.00;;;;;8.51;64.17;98157.41;6288182;27;96572;-68
2022/12/07 05:44:31;;;;;;;;;16.60;16.00;;;;;8.60;63.87;98164.13;6287763;27;96615;-68
2022/12/07 05:47:34;;;;;;;;;15.75;14.75;;;;;8.62;63.40;98162.84;6288115;27;96527;-68
2022/12/07 05:50:38;;;;;;;;;16.25;16.00;;;;;8.61;63.54;98168.44;6287090;27;96782;-68
2022/12/07 05:53:42;;;;;;;;;18.50;16.50;;;;;8.59;63.83;98165.19;6287726;27;96189;-68
2022/12/07 05:56:46;;;;;;;;;18.50;17.25;;;;;8.58;63.60;98168.91;6284182;27;96196;-68
2022/12/07 05:59:49;;;;;;;;;15.00;14.00;;;;;8.54;63.64;98179.28;6288848;27;96947;-68
2022/12/07 06:02:53;;;;;;;;;16.00;15.00;;;;;8.58;63.21;98175.09;6291553;27;96383;-68
2022/12/07 06:05:57;;;;;;;;;21.00;20.25;;;;;8.57;62.83;98178.00;6282421;27;96197;-68
2022/12/07 06:09:02;;;;;;;;;15.75;15.25;;;;;8.50;62.87;98175.38;6287090;27;96806;-68
2022/12/07 06:15:27;;;;;;;;;16.00;15.00;;;;;8.42;62.41;98172.19;6276168;27;97869;-68
2022/12/07 06:18:30;;;;;;;;;13.25;12.25;;;;;8.40;62.52;98174.31;6287537;27;96431;-68
2022/12/07 06:21:34;;;;;;;;;16.00;15.00;;;;;8.32;62.81;98174.59;6289102;27;96984;-68
2022/12/07 06:24:39;;;;;;;;;14.00;13.50;;;;;8.38;62.44;98177.22;6282102;27;96397;-68
2022/12/07 06:27:43;;;;;;;;;16.40;16.00;;;;;8.33;62.29;98181.59;6288196;27;96564;-68
2022/12/07 06:30:46;;;;;;;;;15.00;15.00;;;;;8.26;62.49;98179.78;6288218;27;96367;-68
2022/12/07 06:33:50;;;;;;;;;17.00;16.00;;;;;8.23;62.74;98179.41;6288421;27;96324;-67
2022/12/07 06:36:54;;;;;;;;;14.00;13.00;;;;;8.14;62.61;98183.44;6286154;27;96986;-67
2022/12/07 06:39:59;;;;;;;;;15.00;14.00;;;;;8.22;62.34;98180.44;6287453;27;96335;-69
2022/12/07 06:43:03;;;;;;;;;16.00;15.60;;;;;8.28;62.23;98180.38;6289053;27;96186;-68
2022/12/07 06:46:07;;;;;;;;;16.00;15.33;;;;;8.28;62.21;98176.88;6288649;27;96567;-67
2022/12/07 06:49:10;;;;;;;;;11.00;10.60;;;;;8.20;62.25;98183.38;6287902;27;96239;-67
2022/12/07 06:52:13;;;;;;;;;16.40;15.40;;;;;8.21;62.58;98181.50;6287278;27;97630;-68
2022/12/07 06:55:18;;;;;;;;;16.00;15.00;;;;;8.26;62.26;98189.69;6288037;27;96334;-67
2022/12/07 06:58:22;;;;;;;;;12.75;12.00;;;;;8.24;62.22;98181.06;6283079;27;96305;-68
2022/12/07 07:01:25;;;;;;;;;16.00;15.00;;;;;8.28;62.19;98195.69;6289838;27;97166;-68
2022/12/07 07:04:28;;;;;;;;;14.40;13.40;;;;;8.33;62.27;98192.34;6294928;27;97187;-67
2022/12/07 07:07:32;;;;;;;;;15.40;14.00;;;;;8.34;62.20;98197.50;6287946;27;98014;-68
2022/12/07 07:10:57;;;;;;;;;13.25;12.25;;;;;8.40;62.17;98201.16;6284366;27;96862;-67
2022/12/07 07:14:02;;;;;;;;;15.75;15.75;;;;;8.36;61.95;98200.75;6287580;27;96255;-68
2022/12/07 07:17:05;;;;;;;;;15.60;15.60;;;;;8.40;61.80;98202.00;6286748;27;96595;-67
2022/12/07 07:20:10;;;;;;;;;18.75;18.00;;;;;8.40;61.64;98201.16;6302632;27;96266;-68
2022/12/07 07:23:13;;;;;;;;;18.40;17.40;;;;;8.37;61.91;98194.34;6287252;27;96375;-68
2022/12/07 07:26:18;;;;;;;;;19.00;18.60;;;;;8.38;61.95;98198.69;6287359;27;97063;-68
2022/12/07 07:29:25;;;;;;;;;18.40;17.80;;;;;8.43;62.30;98206.91;6302889;27;96585;-68
2022/12/07 07:32:29;;;;;;;;;20.80;19.20;;;;;8.37;61.98;98207.78;6286602;27;97244;-67
2022/12/07 07:35:34;;;;;;;;;18.60;17.60;;;;;8.36;62.24;98205.31;6286072;27;96256;-67
2022/12/07 07:38:37;;;;;;;;;16.00;15.00;;;;;8.36;62.07;98203.44;6287575;27;97120;-67
2022/12/07 07:41:42;;;;;;;;;17.60;16.20;;;;;8.18;62.39;98208.78;6287348;27;97573;-67
2022/12/07 07:44:49;;;;;;;;;19.00;17.75;;;;;8.10;62.31;98209.09;6287808;27;96689;-69
2022/12/07 07:47:52;;;;;;;;;19.40;19.40;;;;;8.15;62.43;98210.06;6299847;27;96287;-68
2022/12/07 07:50:56;;;;;;;;;20.20;19.00;;;;;8.16;62.14;98200.97;6285337;27;96261;-69
2022/12/07 07:53:59;;;;;;;;;21.80;21.60;;;;;8.13;61.78;98208.63;6288775;27;96391;-68
2022/12/07 07:57:05;;;;;;;;;21.50;20.50;;;;;8.12;62.45;98215.03;6284145;27;96761;-68
2022/12/07 08:00:10;;;;;;;;;21.40;21.40;;;;;7.99;62.68;98220.56;6290521;27;96508;-68
2022/12/07 08:03:17;;;;;;;;;23.40;21.40;;;;;7.99;62.80;98207.13;6292496;27;96651;-67
2022/12/07 08:06:21;;;;;;;;;14.00;12.00;;;;;7.96;62.97;98219.16;6284275;27;96602;-68
2022/12/07 08:09:24;;;;;;;;;20.20;19.00;;;;;8.05;62.75;98217.81;6288228;27;96599;-67
2022/12/07 08:12:29;;;;;;;;;21.00;19.60;;;;;8.04;62.77;98220.72;6289611;27;96518;-67
2022/12/07 08:15:32;;;;;;;;;21.00;20.00;;;;;7.88;63.00;98226.63;6293098;27;97264;-69
2022/12/07 08:18:37;;;;;;;;;23.00;22.00;;;;;7.92;63.28;98238.56;6288535;27;96928;-67
2022/12/07 08:21:40;;;;;;;;;17.80;17.00;;;;;7.82;63.31;98236.38;6285045;27;97399;-68
2022/12/07 08:24:44;;;;;;;;;20.60;20.00;;;;;7.80;63.34;98236.63;6291135;27;96576;-69
2022/12/07 08:27:49;;;;;;;;;18.40;18.00;;;;;7.78;63.69;98244.06;6285083;27;96509;-67
2022/12/07 08:30:53;;;;;;;;;22.60;21.80;;;;;7.78;63.91;98238.69;6288121;27;96152;-67
2022/12/07 08:33:57;;;;;;;;;22.00;20.67;;;;;7.76;63.95;98242.66;6289625;27;96543;-68
2022/12/07 08:37:00;;;;;;;;;22.40;20.40;;;;;7.76;63.94;98240.78;6295132;27;96997;-67
2022/12/07 08:40:04;;;;;;;;;18.60;17.60;;;;;7.92;63.80;98242.09;6284388;27;96714;-68
2022/12/07 08:43:09;;;;;;;;;21.20;20.20;;;;;7.91;63.52;98237.78;6289949;27;96386;-67
2022/12/07 08:46:19;;;;;;;;;21.00;20.20;;;;;8.00;63.42;98254.41;6289659;27;96299;-68
2022/12/07 08:49:27;;;;;;;;;22.40;21.40;;;;;7.99;63.43;98236.66;6289846;27;97391;-68
2022/12/07 08:52:32;;;;;;;;;26.00;25.00;;;;;8.02;63.39;98246.94;6288758;27;96681;-67
2022/12/07 08:55:35;;;;;;;;;24.00;22.00;;;;;8.07;63.31;98242.56;6288846;27;97090;-68
2022/12/07 08:58:41;;;;;;;;;25.00;22.00;;;;;8.10;63.11;98241.31;6289285;27;96554;-67
2022/12/07 09:01:44;;;;;;;;;22.60;21.60;;;;;8.07;63.39;98252.47;6289961;27;96689;-67
2022/12/07 09:04:48;;;;;;;;;29.00;27.60;;;;;8.14;63.25;98243.34;6292339;27;97228;-69
2022/12/07 09:07:55;;;;;;;;;25.00;22.40;;;;;8.01;63.57;98259.56;6288016;27;97217;-68
2022/12/07 09:10:59;;;;;;;;;30.00;28.00;;;;;8.23;63.22;98255.41;6292905;27;96274;-67
2022/12/07 09:14:03;;;;;;;;;23.00;20.00;;;;;8.28;63.21;98250.19;6293241;27;96732;-69
2022/12/07 09:17:08;;;;;;;;;24.25;23.25;;;;;8.37;63.31;98250.75;6286795;27;96997;-68
2022/12/07 09:20:12;;;;;;;;;21.60;20.20;;;;;8.24;62.94;98245.50;6287228;27;96233;-68
2022/12/07 09:23:16;;;;;;;;;20.25;19.50;;;;;8.43;62.65;98257.09;6291132;27;97276;-69
2022/12/07 09:26:20;;;;;;;;;18.40;16.40;;;;;8.44;62.63;98243.47;6285141;27;97219;-69
2022/12/07 09:29:25;;;;;;;;;22.50;22.50;;;;;8.51;62.60;98241.50;6283651;27;98503;-67
2022/12/07 09:32:28;;;;;;;;;17.60;16.80;;;;;8.64;62.79;98246.75;6286424;27;96476;-68
2022/12/07 09:35:32;;;;;;;;;20.80;18.40;;;;;8.65;61.68;98236.78;6285040;27;96359;-68
2022/12/07 09:38:35;;;;;;;;;17.40;17.00;;;;;8.86;61.81;98230.97;6268112;27;96931;-68
2022/12/07 09:41:40;;;;;;;;;15.00;14.00;;;;;8.95;61.38;98229.59;6287889;27;96479;-68
2022/12/07 09:44:45;;;;;;;;;12.50;12.00;;;;;8.95;61.15;98234.16;6285905;27;96319;-66
2022/12/07 09:47:48;;;;;;;;;14.75;13.25;;;;;9.07;60.87;98237.72;6289278;27;97555;-68
2022/12/07 09:50:56;;;;;;;;;15.50;14.50;;;;;8.99;60.71;98230.78;6288116;27;96161;-67
2022/12/07 09:54:00;;;;;;;;;19.00;18.25;;;;;9.03;60.63;98228.47;6289744;27;96689;-68
2022/12/07 09:57:04;;;;;;;;;13.50;13.00;;;;;9.10;60.63;98230.00;6286886;27;98418;-68
2022/12/07 10:00:14;;;;;;;;;17.80;17.00;;;;;9.08;60.15;98228.63;6291500;27;97508;-68
2022/12/07 10:03:17;;;;;;;;;12.00;11.00;;;;;9.11;59.92;98233.53;6289298;27;96957;-67
2022/12/07 10:06:21;;;;;;;;;17.00;16.25;;;;;9.02;60.28;98222.28;6288706;27;96293;-68
2022/12/07 10:09:26;;;;;;;;;17.00;15.50;;;;;9.08;60.01;98218.69;6284026;27;96358;-67
2022/12/07 10:12:29;;;;;;;;;17.00;16.00;;;;;9.11;60.53;98220.91;6288156;27;96431;-68
2022/12/07 10:15:45;;;;;;;;;16.40;15.40;;;;;9.12;60.08;98211.78;6288295;27;96279;-68
2022/12/07 10:18:49;;;;;;;;;17.00;17.00;;;;;8.94;60.38;98211.81;6293406;27;97569;-68
2022/12/07 10:22:10;;;;;;;;;17.00;16.00;;;;;8.95;61.10;98216.16;6287223;27;98453;-68
2022/12/07 10:25:20;;;;;;;;;16.20;15.80;;;;;9.02;61.26;98208.00;6286567;27;97423;-67
2022/12/07 10:28:24;;;;;;;;;15.60;14.20;;;;;8.99;61.39;98213.84;6288486;27;96725;-68
2022/12/07 10:31:29;;;;;;;;;15.00;13.00;;;;;8.87;61.75;98202.22;6285551;27;96993;-68
2022/12/07 10:34:35;;;;;;;;;22.00;20.40;;;;;8.94;61.61;98201.06;6283057;27;97239;-67
2022/12/07 10:37:46;;;;;;;;;17.00;16.00;;;;;9.06;61.50;98199.25;6294904;27;96112;-68
2022/12/07 10:41:04;;;;;;;;;14.60;14.60;;;;;9.10;61.27;98195.06;6289679;27;97318;-67
2022/12/07 10:44:22;;;;;;;;;12.50;12.00;;;;;9.12;61.30;98197.53;6288365;27;96854;-69
2022/12/07 10:47:35;;;;;;;;;16.00;14.20;;;;;9.09;61.31;98193.41;6286622;27;96751;-67
2022/12/07 10:50:56;;;;;;;;;14.00;12.50;;;;;9.05;61.57;98186.03;6286171;27;96619;-69
2022/12/07 10:54:11;;;;;;;;;16.60;16.40;;;;;9.11;60.70;98182.44;6287508;27;96554;-70
2022/12/07 10:57:41;;;;;;;;;15.40;14.40;;;;;9.23;60.87;98180.59;6287435;27;96204;-69
2022/12/07 11:00:52;;;;;;;;;12.00;11.80;;;;;9.15;60.59;98164.78;6273668;27;96249;-68
2022/12/07 11:04:18;;;;;;;;;16.00;15.00;;;;;9.29;60.26;98178.84;6291776;27;96447;-67
2022/12/07 11:07:35;;;;;;;;;15.00;14.25;;;;;9.42;59.86;98175.97;6295079;27;96198;-67
2022/12/07 11:10:45;;;;;;;;;11.00;11.00;;;;;9.30;58.68;98169.72;6287181;27;96500;-67
2022/12/07 11:13:54;;;;;;;;;12.80;12.80;;;;;9.23;58.84;98158.28;6285231;27;96773;-67
2022/12/07 11:17:03;;;;;;;;;14.00;14.00;;;;;9.37;59.24;98170.47;6286381;27;97420;-68
2022/12/07 11:20:24;;;;;;;;;10.20;10.20;;;;;9.43;58.46;98164.94;6288422;27;97019;-67
2022/12/07 11:23:41;;;;;;;;;13.00;11.40;;;;;9.55;58.16;98168.50;6277486;27;97384;-68
2022/12/07 11:27:08;;;;;;;;;11.00;10.00;;;;;9.58;57.83;98156.44;6287364;27;96229;-67
2022/12/07 11:30:20;;;;;;;;;16.00;15.00;;;;;9.64;56.47;98155.50;6287656;27;96329;-67
2022/12/07 11:33:31;;;;;;;;;15.20;14.20;;;;;9.77;56.78;98155.28;6288821;27;96843;-68
2022/12/07 11:36:41;;;;;;;;;13.20;12.80;;;;;9.94;56.38;98161.59;6288426;27;96436;-68
2022/12/07 11:39:52;;;;;;;;;11.00;11.00;;;;;9.94;55.37;98158.06;6287790;27;96346;-67
2022/12/07 11:43:02;;;;;;;;;15.25;14.75;;;;;10.03;55.43;98153.97;6287137;27;96879;-67
2022/12/07 11:46:15;;;;;;;;;10.25;10.25;;;;;10.04;54.89;98141.31;6287497;27;97116;-68
2022/12/07 11:49:28;;;;;;;;;15.80;15.00;;;;;10.09;54.35;98152.22;6287145;27;96676;-67
2022/12/07 11:52:46;;;;;;;;;15.00;14.40;;;;;10.11;54.04;98155.50;6288315;27;97010;-68
2022/12/07 11:55:53;;;;;;;;;13.60;13.60;;;;;10.10;53.89;98140.38;6284778;27;96562;-67
2022/12/07 11:59:01;;;;;;;;;18.00;18.00;;;;;10.13;54.10;98146.13;6284269;27;96966;-68
2022/12/07 12:02:15;;;;;;;;;18.00;16.00;;;;;10.20;54.47;98146.84;6287453;27;96278;-69
2022/12/07 12:05:21;;;;;;;;;20.40;17.60;;;;;10.24;54.21;98144.50;6289679;27;96357;-67
2022/12/07 12:08:31;;;;;;;;;8.00;7.40;;;;;10.09;53.60;98114.50;6291396;27;96480;-68
2022/12/07 12:12:22;;;;;;;;;10.25;10.25;;;;;10.17;53.27;98138.41;6291354;27;96315;-68
2022/12/07 12:16:00;;;;;;;;;10.60;10.40;;;;;10.04;53.00;98144.03;6289264;27;96556;-67
2022/12/07 12:19:20;;;;;;;;;15.60;15.60;;;;;10.08;52.74;98127.16;6290743;27;96469;-68
2022/12/07 12:22:33;;;;;;;;;11.00;11.00;;;;;10.11;52.00;98133.97;6289625;27;97057;-67
2022/12/07 12:25:42;;;;;;;;;12.00;12.00;;;;;10.11;51.76;98133.97;6293199;27;96711;-67
2022/12/07 12:28:53;;;;;;;;;10.40;10.40;;;;;10.02;51.88;98122.69;6290294;27;96430;-67
2022/12/07 12:32:15;;;;;;;;;8.20;8.00;;;;;10.07;51.69;98120.13;6291331;27;98519;-68
2022/12/07 12:35:32;;;;;;;;;9.00;9.00;;;;;10.07;51.96;98127.41;6291867;27;96528;-68
2022/12/07 12:38:50;;;;;;;;;11.20;11.20;;;;;10.10;52.11;98118.84;6288473;27;96323;-68
2022/12/07 12:42:09;;;;;;;;;12.00;12.00;;;;;10.12;51.28;98128.31;6288515;27;96729;-68
2022/12/07 12:45:22;;;;;;;;;11.00;10.00;;;;;9.94;51.17;98113.13;6289926;27;96306;-68
2022/12/07 12:48:29;;;;;;;;;9.40;8.40;;;;;9.87;50.16;98111.63;6290633;27;97495;-68
2022/12/07 12:51:40;;;;;;;;;7.25;7.00;;;;;9.77;50.47;98119.47;6289864;27;96570;-68
2022/12/07 12:55:02;;;;;;;;;13.00;12.00;;;;;9.84;50.99;98122.84;6285583;27;96214;-68
2022/12/07 12:58:34;;;;;;;;;8.40;8.00;;;;;9.86;50.57;98126.97;6288281;27;96573;-68
2022/12/07 13:01:44;;;;;;;;;12.60;12.00;;;;;9.83;50.27;98122.03;6302656;27;96609;-68
2022/12/07 13:04:54;;;;;;;;;10.40;10.00;;;;;9.78;49.95;98129.16;6289572;27;96467;-68
2022/12/07 13:08:02;;;;;;;;;12.00;12.00;;;;;9.73;49.55;98124.50;6290152;27;96554;-68
2022/12/07 13:11:20;;;;;;;;;16.00;16.00;;;;;9.67;50.21;98130.84;6288118;27;96596;-68
2022/12/07 13:14:59;;;;;;;;;11.60;10.00;;;;;9.60;49.37;98132.81;6286561;27;96564;-68
2022/12/07 13:18:22;;;;;;;;;12.40;11.60;;;;;9.59;49.20;98123.09;6287212;27;96406;-68
2022/12/07 13:21:45;;;;;;;;;11.60;10.60;;;;;9.31;49.15;98107.63;6286768;27;97611;-67
2022/12/07 13:24:48;;;;;;;;;15.00;15.00;;;;;9.34;49.57;98101.78;6299067;27;96806;-68
2022/12/07 13:27:58;;;;;;;;;13.00;13.00;;;;;9.54;49.08;98122.97;6305364;27;96745;-67
2022/12/07 13:31:25;;;;;;;;;17.00;17.00;;;;;9.56;48.97;98119.00;6290043;27;96440;-67
2022/12/07 13:34:31;;;;;;;;;11.00;10.60;;;;;9.64;48.60;98111.63;6287963;27;96517;-68
2022/12/07 13:37:35;;;;;;;;;14.60;14.60;;;;;9.81;48.72;98128.72;6288645;27;96569;-67
2022/12/07 13:40:41;;;;;;;;;13.40;13.00;;;;;9.95;48.40;98139.00;6289759;27;96296;-68
2022/12/07 13:43:47;;;;;;;;;13.25;13.25;;;;;10.02;48.04;98135.38;6290400;27;96499;-68
2022/12/07 13:46:59;;;;;;;;;16.00;16.00;;;;;10.02;48.15;98146.94;6292129;27;96456;-68
2022/12/07 13:50:03;;;;;;;;;14.80;14.40;;;;;10.01;48.27;98150.72;6299619;27;97162;-68
2022/12/07 13:53:15;;;;;;;;;14.00;13.75;;;;;9.96;48.55;98148.72;6299404;27;96284;-68
2022/12/07 13:56:18;;;;;;;;;13.50;12.50;;;;;10.04;48.67;98147.53;6276101;27;97208;-68
2022/12/07 13:59:24;;;;;;;;;12.00;11.80;;;;;10.14;48.15;98147.75;6288566;27;97542;-67
2022/12/07 14:02:31;;;;;;;;;16.00;15.00;;;;;10.16;47.92;98151.06;6292297;27;97853;-67
2022/12/07 14:05:38;;;;;;;;;13.00;12.00;;;;;10.22;48.57;98149.28;6284693;27;97016;-67
2022/12/07 14:08:42;;;;;;;;;12.25;12.25;;;;;10.35;48.48;98149.88;6287613;27;97219;-69
2022/12/07 14:11:46;;;;;;;;;14.00;13.33;;;;;10.41;48.25;98156.97;6291859;27;96374;-68
2022/12/07 14:14:51;;;;;;;;;14.20;13.20;;;;;10.46;47.79;98152.78;6287302;27;96494;-67
2022/12/07 14:17:56;;;;;;;;;17.00;17.00;;;;;10.29;47.39;98163.47;6286523;27;96367;-67
2022/12/07 14:21:07;;;;;;;;;20.00;20.00;;;;;10.12;47.60;98165.19;6286803;27;96618;-67
2022/12/07 14:24:15;;;;;;;;;17.00;16.00;;;;;9.96;47.63;98158.69;6287859;27;96266;-67
2022/12/07 14:27:20;;;;;;;;;15.20;14.80;;;;;9.87;47.99;98158.19;6286857;27;96561;-68
2022/12/07 14:30:26;;;;;;;;;18.00;16.60;;;;;9.70;48.01;98157.28;6286209;27;98059;-68
2022/12/07 14:33:31;;;;;;;;;16.80;16.00;;;;;9.52;47.88;98165.44;6284575;27;96123;-67
2022/12/07 14:36:34;;;;;;;;;16.60;15.20;;;;;9.37;47.62;98162.38;6285439;27;96411;-67